createdAt,value
2023-10-09T00:02:30.167Z,4.82
2023-10-09T00:05:24.476Z,4.38
2023-10-09T00:08:10.624Z,4.90
2023-10-09T00:11:00.420Z,5.20
2023-10-09T00:13:52.167Z,4.70
2023-10-09T00:16:41.744Z,4.45
2023-10-09T00:19:34.471Z,5.20
2023-10-09T00:22:26.345Z,5.03
2023-10-09T00:25:12.369Z,6.35
2023-10-09T00:28:00.852Z,4.90
2023-10-09T00:30:46.454Z,5.13
2023-10-09T00:33:33.671Z,5.68
2023-10-09T00:36:29.639Z,5.10
2023-10-09T00:39:22.970Z,4.82
2023-10-09T00:42:09.125Z,4.72
2023-10-09T00:44:56.125Z,5.68
2023-10-09T00:47:44.874Z,5.03
2023-10-09T00:50:36.649Z,4.63
2023-10-09T00:53:35.223Z,5.20
2023-10-09T00:56:40.024Z,4.55
2023-10-09T00:59:27.440Z,5.28
2023-10-09T01:02:13.042Z,4.65
2023-10-09T01:05:00.653Z,4.82
2023-10-09T01:07:48.994Z,4.95
2023-10-09T01:10:54.415Z,4.68
2023-10-09T01:13:54.658Z,4.60
2023-10-09T01:16:45.073Z,5.22
2023-10-09T01:19:32.197Z,4.53
2023-10-09T01:22:22.614Z,6.40
2023-10-09T01:25:08.474Z,5.45
2023-10-09T01:27:53.925Z,5.18
2023-10-09T01:30:42.957Z,4.85
2023-10-09T01:33:29.841Z,4.97
2023-10-09T01:36:18.026Z,4.22
2023-10-09T01:39:11.641Z,4.72
2023-10-09T01:42:00.685Z,4.55
2023-10-09T01:44:52.291Z,4.57
2023-10-09T01:47:39.237Z,4.60
2023-10-09T01:50:32.709Z,4.18
2023-10-09T01:53:19.086Z,4.38
2023-10-09T01:56:18.900Z,3.95
2023-10-09T01:59:06.982Z,4.55
2023-10-09T02:01:56.078Z,4.60
2023-10-09T02:04:44.298Z,4.25
2023-10-09T02:07:30.895Z,4.78
2023-10-09T02:10:25.604Z,4.90
2023-10-09T02:13:11.529Z,4.82
2023-10-09T02:16:14.552Z,4.85
2023-10-09T02:19:00.343Z,4.68
2023-10-09T02:21:48.710Z,4.70
2023-10-09T02:24:51.131Z,5.50
2023-10-09T02:27:56.703Z,4.38
2023-10-09T02:30:42.519Z,4.68
2023-10-09T02:33:34.414Z,4.68
2023-10-09T02:36:19.875Z,4.15
2023-10-09T02:39:07.109Z,4.38
2023-10-09T02:42:03.035Z,4.35
2023-10-09T02:44:50.920Z,4.18
2023-10-09T02:47:40.704Z,4.38
2023-10-09T02:50:29.472Z,4.28
2023-10-09T02:53:20.148Z,4.53
2023-10-09T02:56:15.461Z,4.30
2023-10-09T02:59:06.911Z,4.70
2023-10-09T03:01:54.087Z,4.22
2023-10-09T03:04:40.314Z,4.82
2023-10-09T03:07:28.271Z,4.78
2023-10-09T03:10:13.911Z,4.82
2023-10-09T03:13:02.862Z,5.00
2023-10-09T03:15:49.516Z,5.38
2023-10-09T03:18:34.999Z,5.10
2023-10-09T03:21:21.489Z,5.80
2023-10-09T03:24:09.054Z,5.05
2023-10-09T03:26:57.147Z,4.88
2023-10-09T03:29:42.879Z,5.18
2023-10-09T03:32:28.205Z,4.80
2023-10-09T03:35:18.918Z,4.18
2023-10-09T03:38:13.792Z,4.72
2023-10-09T03:40:59.675Z,4.40
2023-10-09T03:43:47.393Z,4.75
2023-10-09T03:46:38.010Z,4.78
2023-10-09T03:49:27.308Z,4.25
2023-10-09T03:52:12.951Z,5.22
2023-10-09T03:54:58.208Z,4.88
2023-10-09T03:57:46.541Z,4.90
2023-10-09T04:00:32.687Z,4.47
2023-10-09T04:03:18.765Z,4.78
2023-10-09T04:06:05.638Z,4.53
2023-10-09T04:08:53.375Z,4.15
2023-10-09T04:11:43.977Z,4.65
2023-10-09T04:14:36.077Z,4.63
2023-10-09T04:17:24.187Z,4.35
2023-10-09T04:20:18.884Z,4.28
2023-10-09T04:23:07.639Z,4.68
2023-10-09T04:25:53.926Z,4.63
2023-10-09T04:28:43.363Z,4.10
2023-10-09T04:31:38.836Z,5.00
2023-10-09T04:34:30.022Z,4.28
2023-10-09T04:37:16.468Z,4.22
2023-10-09T04:40:14.118Z,4.85
2023-10-09T04:43:00.118Z,4.25
2023-10-09T04:45:45.413Z,4.22
2023-10-09T04:48:39.852Z,4.20
2023-10-09T04:51:37.902Z,4.35
2023-10-09T04:54:40.409Z,4.30
2023-10-09T04:57:26.715Z,4.68
2023-10-09T05:00:26.265Z,3.85
2023-10-09T05:03:13.462Z,3.92
2023-10-09T05:06:00.075Z,3.90
2023-10-09T05:08:47.227Z,4.22
2023-10-09T05:11:35.924Z,4.40
2023-10-09T05:14:40.009Z,3.83
2023-10-09T05:17:26.916Z,4.18
2023-10-09T05:20:24.816Z,4.32
2023-10-09T05:23:24.645Z,3.88
2023-10-09T05:26:30.212Z,3.97
2023-10-09T05:29:20.571Z,4.07
2023-10-09T05:32:10.503Z,4.13
2023-10-09T05:35:01.513Z,3.95
2023-10-09T05:37:47.465Z,4.40
2023-10-09T05:40:32.881Z,4.10
2023-10-09T05:43:38.513Z,4.03
2023-10-09T05:46:36.528Z,4.68
2023-10-09T05:49:25.783Z,4.18
2023-10-09T05:52:49.843Z,4.95
2023-10-09T05:55:54.275Z,4.00
2023-10-09T05:59:15.083Z,3.58
2023-10-09T06:02:03.714Z,4.43
2023-10-09T06:04:55.639Z,4.32
2023-10-09T06:08:04.338Z,5.50
2023-10-09T06:10:49.904Z,4.70
2023-10-09T06:13:38.702Z,4.30
2023-10-09T06:16:42.881Z,4.22
2023-10-09T06:19:33.201Z,4.07
2023-10-09T06:22:37.425Z,5.68
2023-10-09T06:25:28.159Z,5.60
2023-10-09T06:28:14.822Z,4.97
2023-10-09T06:31:20.602Z,4.32
2023-10-09T06:34:16.878Z,4.85
2023-10-09T06:37:29.265Z,4.95
2023-10-09T06:40:33.343Z,5.53
2023-10-09T06:43:23.158Z,4.95
2023-10-09T06:46:27.976Z,4.93
2023-10-09T06:49:32.193Z,4.60
2023-10-09T06:52:38.080Z,4.60
2023-10-09T06:55:35.430Z,3.90
2023-10-09T06:58:28.609Z,4.53
2023-10-09T07:01:32.896Z,4.13
2023-10-09T07:04:41.136Z,4.53
2023-10-09T07:07:26.551Z,4.30
2023-10-09T07:10:30.135Z,4.97
2023-10-09T07:13:15.542Z,5.00
2023-10-09T07:16:19.536Z,4.57
2023-10-09T07:19:20.934Z,5.53
2023-10-09T07:22:17.260Z,5.20
2023-10-09T07:25:28.879Z,4.95
2023-10-09T07:28:30.564Z,5.32
2023-10-09T07:31:28.326Z,4.47
2023-10-09T07:34:46.353Z,4.57
2023-10-09T07:37:32.195Z,4.82
2023-10-09T07:40:19.235Z,6.18
2023-10-09T07:43:06.020Z,8.55
2023-10-09T07:45:51.392Z,4.07
2023-10-09T07:48:49.752Z,4.53
2023-10-09T07:51:37.789Z,3.97
2023-10-09T07:54:35.723Z,5.78
2023-10-09T07:57:26.958Z,4.47
2023-10-09T08:00:13.800Z,4.60
2023-10-09T08:03:01.661Z,4.60
2023-10-09T08:05:47.403Z,5.07
2023-10-09T08:08:39.399Z,4.35
2023-10-09T08:11:43.582Z,4.78
2023-10-09T08:14:35.561Z,4.05
2023-10-09T08:17:24.231Z,4.55
2023-10-09T08:20:12.980Z,4.60
2023-10-09T08:22:58.570Z,4.25
2023-10-09T08:25:58.385Z,4.07
2023-10-09T08:28:45.615Z,5.07
2023-10-09T08:31:46.473Z,5.30
2023-10-09T08:37:37.738Z,5.35
2023-10-09T08:40:34.313Z,4.72
2023-10-09T08:43:21.619Z,5.47
2023-10-09T08:46:08.428Z,5.38
2023-10-09T08:49:10.251Z,4.90
2023-10-09T08:51:56.840Z,4.63
2023-10-09T08:54:45.062Z,5.00
2023-10-09T08:57:31.990Z,5.55
2023-10-09T09:00:24.869Z,6.15
2023-10-09T09:03:10.862Z,4.93
2023-10-09T09:06:04.734Z,4.88
2023-10-09T09:08:56.274Z,5.80
2023-10-09T09:11:51.012Z,4.75
2023-10-09T09:14:39.855Z,4.35
2023-10-09T09:17:33.493Z,5.32
2023-10-09T09:20:37.878Z,6.38
2023-10-09T09:23:25.218Z,5.00
2023-10-09T09:26:13.091Z,4.60
2023-10-09T09:28:58.797Z,4.70
2023-10-09T09:32:07.518Z,6.38
2023-10-09T09:35:07.716Z,4.53
2023-10-09T09:37:56.489Z,4.22
2023-10-09T09:40:42.774Z,4.13
2023-10-09T09:43:32.613Z,4.57
2023-10-09T09:46:22.918Z,4.85
2023-10-09T09:49:18.124Z,4.38
2023-10-09T09:52:11.574Z,5.15
2023-10-09T09:54:57.464Z,5.03
2023-10-09T09:57:47.127Z,4.28
2023-10-09T10:00:44.430Z,4.65
2023-10-09T10:03:44.673Z,4.13
2023-10-09T10:06:34.180Z,4.40
2023-10-09T10:09:43.154Z,4.60
2023-10-09T10:13:15.240Z,4.88
2023-10-09T10:16:01.872Z,4.10
2023-10-09T10:19:01.407Z,4.97
2023-10-09T10:21:50.602Z,4.75
2023-10-09T10:24:52.808Z,4.07
2023-10-09T10:28:01.800Z,5.07
2023-10-09T10:30:48.385Z,3.85
2023-10-09T10:33:57.292Z,4.72
2023-10-09T10:37:16.162Z,4.80
2023-10-09T10:40:17.429Z,4.50
2023-10-09T10:43:14.248Z,5.05
2023-10-09T10:46:53.375Z,4.18
2023-10-09T10:49:50.340Z,3.95
2023-10-09T10:52:37.073Z,3.67
2023-10-09T10:55:31.767Z,4.28
2023-10-09T10:58:24.895Z,4.30
2023-10-09T11:01:13.392Z,4.63
2023-10-09T11:03:59.654Z,3.88
2023-10-09T11:06:51.811Z,4.90
2023-10-09T11:10:05.886Z,4.18
2023-10-09T11:12:54.032Z,4.90
2023-10-09T11:15:58.677Z,3.83
2023-10-09T11:18:47.334Z,4.43
2023-10-09T11:21:33.408Z,3.88
2023-10-09T11:24:30.204Z,4.57
2023-10-09T11:27:21.911Z,3.90
2023-10-09T11:30:11.937Z,4.10
2023-10-09T11:33:08.734Z,4.35
2023-10-09T11:35:58.730Z,3.83
2023-10-09T11:38:50.363Z,4.20
2023-10-09T11:41:42.522Z,4.40
2023-10-09T11:44:40.376Z,3.90
2023-10-09T11:47:36.208Z,4.07
2023-10-09T11:50:23.533Z,4.07
2023-10-09T11:53:10.306Z,4.00
2023-10-09T11:55:55.854Z,3.47
2023-10-09T11:58:42.019Z,4.03
2023-10-09T12:01:36.499Z,3.75
2023-10-09T12:04:31.378Z,4.22
2023-10-09T12:07:17.353Z,3.65
2023-10-09T12:10:03.582Z,3.33
2023-10-09T12:12:50.557Z,3.38
2023-10-09T12:15:38.903Z,3.95
2023-10-09T12:18:25.438Z,4.13
2023-10-09T12:21:17.063Z,3.65
2023-10-09T12:24:12.824Z,3.90
2023-10-09T12:26:58.714Z,4.28
2023-10-09T12:29:48.051Z,4.45
2023-10-09T12:32:37.617Z,4.43
2023-10-09T12:35:25.005Z,4.32
2023-10-09T12:38:11.213Z,5.22
2023-10-09T12:41:09.266Z,4.45
2023-10-09T12:44:04.142Z,4.55
2023-10-09T12:46:54.412Z,3.97
2023-10-09T12:49:48.038Z,4.15
2023-10-09T12:52:38.302Z,4.10
2023-10-09T12:55:36.174Z,4.07
2023-10-09T12:58:22.569Z,4.38
2023-10-09T13:01:11.264Z,3.80
2023-10-09T13:03:57.143Z,3.90
2023-10-09T13:06:46.948Z,3.80
2023-10-09T13:09:36.955Z,3.70
2023-10-09T13:12:24.077Z,3.75
2023-10-09T13:15:11.395Z,4.20
2023-10-09T13:17:56.957Z,4.47
2023-10-09T13:20:42.368Z,4.82
2023-10-09T13:23:39.270Z,4.45
2023-10-09T13:26:32.861Z,3.33
2023-10-09T13:29:25.421Z,3.70
2023-10-09T13:32:17.451Z,3.67
2023-10-09T13:35:08.387Z,4.35
2023-10-09T13:37:56.668Z,4.10
2023-10-09T13:40:42.028Z,4.05
2023-10-09T13:43:29.612Z,4.32
2023-10-09T13:46:18.752Z,4.07
2023-10-09T13:49:04.364Z,4.35
2023-10-09T13:51:57.713Z,4.88
2023-10-09T13:54:43.471Z,4.45
2023-10-09T13:57:32.738Z,4.90
2023-10-09T14:00:33.572Z,5.18
2023-10-09T14:03:21.275Z,4.40
2023-10-09T14:06:15.790Z,4.47
2023-10-09T14:09:10.229Z,4.90
2023-10-09T14:12:07.309Z,4.53
2023-10-09T14:14:55.176Z,4.18
2023-10-09T14:17:43.844Z,4.70
2023-10-09T14:20:32.774Z,4.63
2023-10-09T14:23:21.873Z,5.10
2023-10-09T14:26:07.864Z,4.88
2023-10-09T14:28:54.641Z,4.70
2023-10-09T14:31:40.214Z,5.40
2023-10-09T14:34:30.412Z,4.45
2023-10-09T14:37:16.380Z,4.70
2023-10-09T14:40:02.265Z,4.85
2023-10-09T14:42:47.817Z,4.10
2023-10-09T14:45:37.880Z,4.35
2023-10-09T14:48:30.160Z,5.10
2023-10-09T14:51:16.469Z,4.63
2023-10-09T14:54:02.999Z,4.70
2023-10-09T14:56:48.528Z,5.85
2023-10-09T14:59:34.803Z,5.05
2023-10-09T15:02:20.511Z,4.82
2023-10-09T15:05:06.613Z,5.30
2023-10-09T15:07:54.243Z,5.70
2023-10-09T15:10:48.735Z,5.63
2023-10-09T15:13:34.992Z,5.00
2023-10-09T15:16:22.569Z,5.18
2023-10-09T15:19:10.999Z,4.65
2023-10-09T15:21:59.749Z,4.50
2023-10-09T15:24:45.282Z,4.93
2023-10-09T15:27:30.803Z,5.30
2023-10-09T15:30:17.964Z,5.65
2023-10-09T15:33:06.236Z,5.30
2023-10-09T15:35:51.293Z,5.22
2023-10-09T15:38:37.758Z,4.70
2023-10-09T15:41:23.513Z,5.03
2023-10-09T15:44:09.052Z,4.35
2023-10-09T15:47:00.875Z,5.72
2023-10-09T15:49:46.940Z,5.65
2023-10-09T15:52:32.509Z,4.63
2023-10-09T15:55:21.804Z,4.72
2023-10-09T15:58:09.883Z,4.78
2023-10-09T16:00:55.318Z,5.60
2023-10-09T16:03:44.721Z,4.72
2023-10-09T16:06:32.351Z,5.03
2023-10-09T16:09:22.379Z,5.38
2023-10-09T16:12:09.486Z,5.20
2023-10-09T16:14:55.174Z,5.93
2023-10-09T16:17:43.969Z,4.75
2023-10-09T16:20:32.753Z,5.32
2023-10-09T16:23:21.069Z,4.53
2023-10-09T16:26:08.409Z,5.47
2023-10-09T16:28:53.934Z,5.10
2023-10-09T16:31:42.095Z,5.28
2023-10-09T16:34:28.228Z,4.75
2023-10-09T16:37:15.185Z,4.90
2023-10-09T16:40:02.856Z,5.28
2023-10-09T16:42:50.471Z,6.10
2023-10-09T16:45:37.348Z,5.05
2023-10-09T16:48:23.618Z,5.57
2023-10-09T16:51:13.419Z,5.47
2023-10-09T16:54:00.082Z,4.97
2023-10-09T16:56:48.577Z,5.75
2023-10-09T16:59:34.709Z,6.25
2023-10-09T17:02:23.870Z,7.10
2023-10-09T17:05:28.970Z,7.43
2023-10-09T17:08:15.010Z,7.32
2023-10-09T17:11:00.914Z,6.82
2023-10-09T17:13:48.965Z,7.47
2023-10-09T17:16:35.163Z,6.05
2023-10-09T17:19:20.850Z,5.95
2023-10-09T17:22:12.716Z,6.18
2023-10-09T17:24:58.089Z,6.65
2023-10-09T17:27:46.759Z,6.60
2023-10-09T17:30:34.878Z,7.03
2023-10-09T17:33:23.885Z,8.35
2023-10-09T17:36:12.910Z,8.77
2023-10-09T17:39:01.362Z,10.73
2023-10-09T17:41:47.012Z,11.05
2023-10-09T17:44:32.614Z,10.07
2023-10-09T17:47:19.005Z,8.80
2023-10-09T17:50:06.218Z,8.13
2023-10-09T17:52:54.245Z,7.10
2023-10-09T17:55:41.562Z,6.15
2023-10-09T17:58:27.705Z,6.03
2023-10-09T18:01:13.405Z,6.43
2023-10-09T18:04:00.502Z,6.25
2023-10-09T18:06:46.231Z,6.40
2023-10-09T18:09:34.125Z,5.95
2023-10-09T18:12:22.807Z,5.88
2023-10-09T18:15:13.985Z,5.90
2023-10-09T18:18:00.949Z,6.15
2023-10-09T18:20:53.957Z,6.35
2023-10-09T18:23:46.021Z,6.63
2023-10-09T18:26:31.931Z,6.57
2023-10-09T18:29:18.141Z,7.07
2023-10-09T18:32:04.158Z,6.65
2023-10-09T18:34:49.771Z,6.38
2023-10-09T18:37:35.339Z,6.40
2023-10-09T18:40:22.022Z,6.72
2023-10-09T18:43:09.609Z,6.80
2023-10-09T18:45:55.481Z,6.20
2023-10-09T18:48:41.464Z,6.80
2023-10-09T18:51:30.501Z,7.45
2023-10-09T18:54:19.310Z,6.15
2023-10-09T18:57:05.097Z,6.50
2023-10-09T18:59:52.827Z,6.38
2023-10-09T19:02:41.300Z,6.60
2023-10-09T19:05:32.184Z,6.53
2023-10-09T19:08:19.623Z,7.00
2023-10-09T19:11:11.748Z,7.35
2023-10-09T19:13:58.968Z,7.40
2023-10-09T19:16:44.449Z,6.65
2023-10-09T19:19:30.158Z,6.68
2023-10-09T19:22:17.051Z,7.13
2023-10-09T19:25:02.696Z,6.45
2023-10-09T19:27:49.693Z,7.35
2023-10-09T19:30:36.083Z,6.75
2023-10-09T19:33:22.637Z,7.25
2023-10-09T19:36:12.772Z,7.07
2023-10-09T19:39:01.101Z,8.45
2023-10-09T19:41:46.619Z,6.88
2023-10-09T19:44:32.421Z,6.90
2023-10-09T19:47:17.789Z,6.43
2023-10-09T19:50:05.313Z,7.30
2023-10-09T19:52:51.343Z,7.35
2023-10-09T19:55:44.773Z,7.38
2023-10-09T19:58:30.891Z,7.75
2023-10-09T20:01:17.164Z,7.20
2023-10-09T20:04:03.840Z,7.72
2023-10-09T20:06:49.672Z,7.85
2023-10-09T20:09:35.413Z,7.70
2023-10-09T20:12:21.284Z,7.85
2023-10-09T20:15:07.804Z,7.38
2023-10-09T20:17:53.133Z,7.95
2023-10-09T20:20:53.881Z,8.05
2023-10-09T20:23:52.038Z,7.88
2023-10-09T20:26:44.971Z,7.65
2023-10-09T20:29:43.302Z,6.75
2023-10-09T20:32:34.422Z,7.20
2023-10-09T20:35:51.934Z,7.82
2023-10-09T20:38:48.353Z,7.35
2023-10-09T20:41:41.924Z,8.07
2023-10-09T20:44:40.132Z,7.55
2023-10-09T20:47:27.254Z,8.02
2023-10-09T20:50:16.225Z,7.18
2023-10-09T20:53:01.879Z,8.05
2023-10-09T20:55:52.016Z,7.88
2023-10-09T20:58:46.589Z,8.13
2023-10-09T21:01:32.865Z,8.35
2023-10-09T21:04:18.679Z,8.40
2023-10-09T21:07:04.361Z,8.55
2023-10-09T21:09:50.000Z,7.30
2023-10-09T21:12:36.863Z,9.15
2023-10-09T21:15:22.953Z,8.30
2023-10-09T21:18:34.354Z,8.40
2023-10-09T21:21:33.854Z,8.70
2023-10-09T21:24:20.942Z,7.90
2023-10-09T21:27:06.592Z,8.93
2023-10-09T21:29:55.311Z,8.45
2023-10-09T21:32:44.042Z,8.82
2023-10-09T21:35:41.734Z,8.75
2023-10-09T21:38:27.765Z,8.07
2023-10-09T21:41:18.290Z,8.23
2023-10-09T21:44:04.369Z,9.18
2023-10-09T21:46:55.345Z,8.63
2023-10-09T21:49:42.438Z,7.95
2023-10-09T21:52:28.993Z,8.07
2023-10-09T21:55:14.847Z,8.63
2023-10-09T21:58:11.978Z,7.57
2023-10-09T22:01:10.240Z,8.75
2023-10-09T22:03:59.735Z,8.90
2023-10-09T22:06:45.308Z,7.88
2023-10-09T22:09:30.913Z,8.68
2023-10-09T22:12:17.454Z,7.68
2023-10-09T22:15:03.734Z,8.88
2023-10-09T22:17:52.009Z,8.88
2023-10-09T22:20:38.959Z,8.93
2023-10-09T22:23:37.766Z,8.98
2023-10-09T22:26:27.572Z,9.05
2023-10-09T22:29:22.040Z,8.40
2023-10-09T22:32:09.707Z,7.47
2023-10-09T22:35:01.817Z,9.02
2023-10-09T22:37:47.405Z,7.45
2023-10-09T22:40:39.712Z,8.25
2023-10-09T22:43:25.477Z,8.02
2023-10-09T22:46:14.684Z,7.60
2023-10-09T22:49:15.110Z,8.63
2023-10-09T22:52:02.768Z,7.13
2023-10-09T22:54:50.184Z,8.80
2023-10-09T22:57:35.746Z,7.85
2023-10-09T23:00:49.879Z,8.48
2023-10-09T23:03:41.523Z,7.88
2023-10-09T23:06:35.001Z,9.10
2023-10-09T23:09:33.615Z,8.40
2023-10-09T23:12:36.518Z,7.50
2023-10-09T23:15:34.312Z,8.50
2023-10-09T23:18:35.625Z,7.90
2023-10-09T23:21:21.501Z,7.53
2023-10-09T23:24:12.693Z,8.35
2023-10-09T23:26:58.632Z,7.72
2023-10-09T23:29:53.016Z,6.93
2023-10-09T23:32:38.465Z,7.38
2023-10-09T23:35:43.919Z,7.07
2023-10-09T23:38:36.031Z,7.45
2023-10-09T23:41:22.856Z,7.15
2023-10-09T23:44:08.901Z,7.50
2023-10-09T23:46:54.198Z,6.90
2023-10-09T23:49:40.179Z,6.90
2023-10-09T23:52:29.624Z,7.45
2023-10-09T23:55:16.637Z,7.60
2023-10-09T23:58:17.471Z,7.82
